sensor_id;sensor_type;location;lat;lon;timestamp;pressure;altitude;pressure_sealevel;temperature;humidity
55604;BME280;41468;48.838;9.330;2022-08-19T00:02:09;97849.19;;;20.64;70.19
55604;BME280;41468;48.838;9.330;2022-08-19T00:04:39;97842.41;;;20.65;70.04
55604;BME280;41468;48.838;9.330;2022-08-19T00:07:11;97850.88;;;20.61;70.13
55604;BME280;41468;48.838;9.330;2022-08-19T00:09:41;97854.88;;;20.60;70.32
55604;BME280;41468;48.838;9.330;2022-08-19T00:12:11;97845.56;;;20.54;70.65
55604;BME280;41468;48.838;9.330;2022-08-19T00:14:41;97847.59;;;20.53;70.48
55604;BME280;41468;48.838;9.330;2022-08-19T00:17:11;97861.47;;;20.53;70.88
55604;BME280;41468;48.838;9.330;2022-08-19T00:19:41;97863.91;;;20.51;70.76
55604;BME280;41468;48.838;9.330;2022-08-19T00:22:13;97859.13;;;20.52;70.86
55604;BME280;41468;48.838;9.330;2022-08-19T00:24:45;97864.84;;;20.48;70.95
55604;BME280;41468;48.838;9.330;2022-08-19T00:27:16;97856.31;;;20.43;71.47
55604;BME280;41468;48.838;9.330;2022-08-19T00:29:52;97855.06;;;20.44;71.66
55604;BME280;41468;48.838;9.330;2022-08-19T00:32:22;97856.09;;;20.37;71.80
55604;BME280;41468;48.838;9.330;2022-08-19T00:34:52;97846.53;;;20.38;72.01
55604;BME280;41468;48.838;9.330;2022-08-19T00:37:25;97841.44;;;20.36;71.86
55604;BME280;41468;48.838;9.330;2022-08-19T00:39:55;97839.84;;;20.35;72.39
55604;BME280;41468;48.838;9.330;2022-08-19T00:42:25;97835.53;;;20.34;72.30
55604;BME280;41468;48.838;9.330;2022-08-19T00:44:57;97827.78;;;20.29;72.48
55604;BME280;41468;48.838;9.330;2022-08-19T00:47:27;97838.47;;;20.31;72.86
55604;BME280;41468;48.838;9.330;2022-08-19T00:49:58;97843.69;;;20.29;72.73
55604;BME280;41468;48.838;9.330;2022-08-19T00:52:34;97839.03;;;20.26;72.78
55604;BME280;41468;48.838;9.330;2022-08-19T00:55:07;97833.16;;;20.24;73.43
55604;BME280;41468;48.838;9.330;2022-08-19T00:57:40;97839.59;;;20.21;72.93
55604;BME280;41468;48.838;9.330;2022-08-19T01:00:14;97832.81;;;20.22;73.21
55604;BME280;41468;48.838;9.330;2022-08-19T01:02:44;97842.72;;;20.23;73.09
55604;BME280;41468;48.838;9.330;2022-08-19T01:05:18;97835.72;;;20.18;73.75
55604;BME280;41468;48.838;9.330;2022-08-19T01:07:52;97840.81;;;20.19;73.71
55604;BME280;41468;48.838;9.330;2022-08-19T01:10:26;97838.19;;;20.16;73.78
55604;BME280;41468;48.838;9.330;2022-08-19T01:13:03;97844.50;;;20.16;73.87
55604;BME280;41468;48.838;9.330;2022-08-19T01:15:40;97845.94;;;20.21;74.26
55604;BME280;41468;48.838;9.330;2022-08-19T01:18:13;97840.72;;;20.23;73.39
55604;BME280;41468;48.838;9.330;2022-08-19T01:20:43;97837.59;;;20.21;73.57
55604;BME280;41468;48.838;9.330;2022-08-19T01:23:16;97835.59;;;20.22;73.79
55604;BME280;41468;48.838;9.330;2022-08-19T01:25:48;97836.50;;;20.18;73.67
55604;BME280;41468;48.838;9.330;2022-08-19T01:28:23;97839.28;;;20.18;73.79
55604;BME280;41468;48.838;9.330;2022-08-19T01:31:06;97846.06;;;20.17;73.85
55604;BME280;41468;48.838;9.330;2022-08-19T01:33:55;97843.09;;;20.12;74.22
55604;BME280;41468;48.838;9.330;2022-08-19T01:36:29;97833.75;;;20.06;74.51
55604;BME280;41468;48.838;9.330;2022-08-19T01:39:06;97829.88;;;20.03;74.36
55604;BME280;41468;48.838;9.330;2022-08-19T01:41:36;97832.47;;;19.98;75.00
55604;BME280;41468;48.838;9.330;2022-08-19T01:44:08;97833.22;;;19.98;74.66
55604;BME280;41468;48.838;9.330;2022-08-19T01:46:46;97840.69;;;20.01;74.59
55604;BME280;41468;48.838;9.330;2022-08-19T01:49:18;97834.81;;;19.99;74.78
55604;BME280;41468;48.838;9.330;2022-08-19T01:51:48;97833.91;;;20.02;75.03
55604;BME280;41468;48.838;9.330;2022-08-19T01:54:22;97834.47;;;19.97;75.19
55604;BME280;41468;48.838;9.330;2022-08-19T01:56:58;97832.94;;;19.96;75.38
55604;BME280;41468;48.838;9.330;2022-08-19T01:59:30;97836.47;;;19.96;74.97
55604;BME280;41468;48.838;9.330;2022-08-19T02:02:04;97824.59;;;19.96;74.95
55604;BME280;41468;48.838;9.330;2022-08-19T02:04:35;97827.03;;;19.94;75.17
55604;BME280;41468;48.838;9.330;2022-08-19T02:07:06;97830.72;;;19.91;75.44
55604;BME280;41468;48.838;9.330;2022-08-19T02:09:39;97839.47;;;19.89;75.46
55604;BME280;41468;48.838;9.330;2022-08-19T02:12:09;97841.50;;;19.89;75.70
55604;BME280;41468;48.838;9.330;2022-08-19T02:14:39;97837.19;;;19.88;75.55
55604;BME280;41468;48.838;9.330;2022-08-19T02:17:09;97835.94;;;19.89;75.34
55604;BME280;41468;48.838;9.330;2022-08-19T02:19:39;97833.59;;;19.87;75.61
55604;BME280;41468;48.838;9.330;2022-08-19T02:22:08;97838.38;;;19.87;75.89
55604;BME280;41468;48.838;9.330;2022-08-19T02:24:41;97843.63;;;19.85;75.83
55604;BME280;41468;48.838;9.330;2022-08-19T02:27:10;97847.47;;;19.87;75.50
55604;BME280;41468;48.838;9.330;2022-08-19T02:29:40;97851.03;;;19.88;75.55
55604;BME280;41468;48.838;9.330;2022-08-19T02:32:10;97849.47;;;19.87;75.70
55604;BME280;41468;48.838;9.330;2022-08-19T02:34:42;97855.16;;;19.83;76.03
55604;BME280;41468;48.838;9.330;2022-08-19T02:37:12;97846.06;;;19.83;75.68
55604;BME280;41468;48.838;9.330;2022-08-19T02:39:56;97846.97;;;19.80;76.15
55604;BME280;41468;48.838;9.330;2022-08-19T02:42:26;97844.97;;;19.80;76.19
55604;BME280;41468;48.838;9.330;2022-08-19T02:44:56;97840.19;;;19.81;76.02
55604;BME280;41468;48.838;9.330;2022-08-19T02:47:27;97839.06;;;19.78;76.43
55604;BME280;41468;48.838;9.330;2022-08-19T02:49:56;97836.44;;;19.74;76.45
55604;BME280;41468;48.838;9.330;2022-08-19T02:52:26;97833.53;;;19.78;76.76
55604;BME280;41468;48.838;9.330;2022-08-19T02:54:59;97836.72;;;19.77;76.29
55604;BME280;41468;48.838;9.330;2022-08-19T02:57:30;97834.09;;;19.73;76.85
55604;BME280;41468;48.838;9.330;2022-08-19T03:00:03;97828.53;;;19.73;77.17
55604;BME280;41468;48.838;9.330;2022-08-19T03:02:33;97831.78;;;19.71;76.93
55604;BME280;41468;48.838;9.330;2022-08-19T03:05:04;97812.94;;;19.66;77.03
55604;BME280;41468;48.838;9.330;2022-08-19T03:07:34;97828.34;;;19.67;77.54
55604;BME280;41468;48.838;9.330;2022-08-19T03:10:07;97828.00;;;19.65;77.52
55604;BME280;41468;48.838;9.330;2022-08-19T03:12:38;97831.53;;;19.66;77.61
55604;BME280;41468;48.838;9.330;2022-08-19T03:15:08;97825.03;;;19.60;77.74
55604;BME280;41468;48.838;9.330;2022-08-19T03:17:38;97838.31;;;19.65;77.28
55604;BME280;41468;48.838;9.330;2022-08-19T03:20:09;97830.69;;;19.56;77.97
55604;BME280;41468;48.838;9.330;2022-08-19T03:22:39;97837.34;;;19.59;77.98
55604;BME280;41468;48.838;9.330;2022-08-19T03:25:11;97834.66;;;19.55;77.85
55604;BME280;41468;48.838;9.330;2022-08-19T03:27:42;97851.22;;;19.59;77.94
55604;BME280;41468;48.838;9.330;2022-08-19T03:30:15;97854.41;;;19.57;77.88
55604;BME280;41468;48.838;9.330;2022-08-19T03:32:49;97855.19;;;19.58;78.35
55604;BME280;41468;48.838;9.330;2022-08-19T03:35:22;97855.41;;;19.50;78.73
55604;BME280;41468;48.838;9.330;2022-08-19T03:37:52;97843.53;;;19.50;78.81
55604;BME280;41468;48.838;9.330;2022-08-19T03:40:25;97851.06;;;19.49;78.91
55604;BME280;41468;48.838;9.330;2022-08-19T03:42:56;97848.84;;;19.44;78.89
55604;BME280;41468;48.838;9.330;2022-08-19T03:45:26;97847.19;;;19.47;79.10
55604;BME280;41468;48.838;9.330;2022-08-19T03:47:56;97852.41;;;19.45;79.04
55604;BME280;41468;48.838;9.330;2022-08-19T03:50:27;97835.78;;;19.45;79.25
55604;BME280;41468;48.838;9.330;2022-08-19T03:52:56;97842.53;;;19.44;79.16
55604;BME280;41468;48.838;9.330;2022-08-19T03:55:30;97842.53;;;19.44;79.32
55604;BME280;41468;48.838;9.330;2022-08-19T03:57:59;97848.97;;;19.41;79.63
55604;BME280;41468;48.838;9.330;2022-08-19T04:00:29;97851.75;;;19.41;79.46
55604;BME280;41468;48.838;9.330;2022-08-19T04:02:59;97855.28;;;19.41;79.42
55604;BME280;41468;48.838;9.330;2022-08-19T04:05:30;97845.88;;;19.39;79.66
55604;BME280;41468;48.838;9.330;2022-08-19T04:07:59;97848.63;;;19.39;79.90
55604;BME280;41468;48.838;9.330;2022-08-19T04:10:35;97850.53;;;19.42;79.40
55604;BME280;41468;48.838;9.330;2022-08-19T04:13:05;97849.53;;;19.36;79.91
55604;BME280;41468;48.838;9.330;2022-08-19T04:15:39;97844.88;;;19.33;80.31
55604;BME280;41468;48.838;9.330;2022-08-19T04:18:09;97847.00;;;19.28;80.59
55604;BME280;41468;48.838;9.330;2022-08-19T04:20:44;97846.53;;;19.30;80.25
55604;BME280;41468;48.838;9.330;2022-08-19T04:23:14;97844.88;;;19.33;79.88
55604;BME280;41468;48.838;9.330;2022-08-19T04:25:47;97841.13;;;19.26;80.89
55604;BME280;41468;48.838;9.330;2022-08-19T04:28:17;97837.13;;;19.27;80.73
55604;BME280;41468;48.838;9.330;2022-08-19T04:30:49;97830.91;;;19.23;80.51
55604;BME280;41468;48.838;9.330;2022-08-19T04:33:21;97835.66;;;19.23;80.57
55604;BME280;41468;48.838;9.330;2022-08-19T04:35:54;97840.91;;;19.21;80.56
55604;BME280;41468;48.838;9.330;2022-08-19T04:38:24;97840.91;;;19.21;81.29
55604;BME280;41468;48.838;9.330;2022-08-19T04:40:57;97844.44;;;19.21;81.16
55604;BME280;41468;48.838;9.330;2022-08-19T04:43:39;97850.63;;;19.25;80.72
55604;BME280;41468;48.838;9.330;2022-08-19T04:46:15;97847.66;;;19.20;81.51
55604;BME280;41468;48.838;9.330;2022-08-19T04:49:07;97848.44;;;19.20;81.20
55604;BME280;41468;48.838;9.330;2022-08-19T04:51:40;97854.00;;;19.20;81.21
55604;BME280;41468;48.838;9.330;2022-08-19T04:54:11;97853.09;;;19.23;80.94
55604;BME280;41468;48.838;9.330;2022-08-19T04:57:02;97856.31;;;19.22;80.72
55604;BME280;41468;48.838;9.330;2022-08-19T04:59:32;97858.72;;;19.20;81.39
55604;BME280;41468;48.838;9.330;2022-08-19T05:02:03;97858.31;;;19.21;81.49
55604;BME280;41468;48.838;9.330;2022-08-19T05:04:33;97861.06;;;19.21;81.38
55604;BME280;41468;48.838;9.330;2022-08-19T05:07:06;97858.31;;;19.21;81.38
55604;BME280;41468;48.838;9.330;2022-08-19T05:09:36;97862.31;;;19.20;81.17
55604;BME280;41468;48.838;9.330;2022-08-19T05:12:27;97864.72;;;19.18;81.41
55604;BME280;41468;48.838;9.330;2022-08-19T05:14:57;97868.72;;;19.17;81.67
55604;BME280;41468;48.838;9.330;2022-08-19T05:17:27;97882.78;;;19.23;81.68
55604;BME280;41468;48.838;9.330;2022-08-19T05:20:05;97889.13;;;19.23;81.37
55604;BME280;41468;48.838;9.330;2022-08-19T05:22:47;97891.09;;;19.23;81.34
55604;BME280;41468;48.838;9.330;2022-08-19T05:25:19;97901.53;;;19.19;81.40
55604;BME280;41468;48.838;9.330;2022-08-19T05:27:51;97914.84;;;19.24;81.39
55604;BME280;41468;48.838;9.330;2022-08-19T05:30:21;97917.63;;;19.24;81.42
55604;BME280;41468;48.838;9.330;2022-08-19T05:33:11;97928.72;;;19.24;81.79
55604;BME280;41468;48.838;9.330;2022-08-19T05:35:41;97933.78;;;19.25;81.49
55604;BME280;41468;48.838;9.330;2022-08-19T05:38:10;97947.34;;;19.23;82.07
55604;BME280;41468;48.838;9.330;2022-08-19T05:40:40;97947.78;;;19.22;81.79
55604;BME280;41468;48.838;9.330;2022-08-19T05:43:15;97945.34;;;19.24;82.18
55604;BME280;41468;48.838;9.330;2022-08-19T05:45:45;97952.44;;;19.25;81.51
55604;BME280;41468;48.838;9.330;2022-08-19T05:48:17;97951.31;;;19.22;81.62
55604;BME280;41468;48.838;9.330;2022-08-19T05:50:47;97951.31;;;19.22;82.00
55604;BME280;41468;48.838;9.330;2022-08-19T05:53:16;97951.31;;;19.22;81.76
55604;BME280;41468;48.838;9.330;2022-08-19T05:55:46;97951.00;;;19.20;82.34
55604;BME280;41468;48.838;9.330;2022-08-19T05:58:18;97947.00;;;19.21;81.94
55604;BME280;41468;48.838;9.330;2022-08-19T06:00:53;97941.00;;;19.23;81.50
55604;BME280;41468;48.838;9.330;2022-08-19T06:03:23;97954.44;;;19.24;82.09
55604;BME280;41468;48.838;9.330;2022-08-19T06:05:53;97954.44;;;19.24;82.12
55604;BME280;41468;48.838;9.330;2022-08-19T06:08:25;97945.00;;;19.22;82.10
55604;BME280;41468;48.838;9.330;2022-08-19T06:11:13;97949.66;;;19.25;81.69
55604;BME280;41468;48.838;9.330;2022-08-19T06:13:46;97953.19;;;19.25;82.06
55604;BME280;41468;48.838;9.330;2022-08-19T06:16:17;97952.78;;;19.27;82.06
55604;BME280;41468;48.838;9.330;2022-08-19T06:18:50;97945.91;;;19.32;81.63
55604;BME280;41468;48.838;9.330;2022-08-19T06:21:22;97948.22;;;19.33;82.37
55604;BME280;41468;48.838;9.330;2022-08-19T06:23:55;97939.59;;;19.31;81.69
55604;BME280;41468;48.838;9.330;2022-08-19T06:26:25;97936.38;;;19.33;82.70
55604;BME280;41468;48.838;9.330;2022-08-19T06:28:58;97938.38;;;19.32;81.95
55604;BME280;41468;48.838;9.330;2022-08-19T06:31:29;97944.56;;;19.36;81.54
55604;BME280;41468;48.838;9.330;2022-08-19T06:34:00;97947.78;;;19.35;81.32
55604;BME280;41468;48.838;9.330;2022-08-19T06:36:34;97955.78;;;19.33;81.57
55604;BME280;41468;48.838;9.330;2022-08-19T06:39:06;97956.53;;;19.33;81.37
55604;BME280;41468;48.838;9.330;2022-08-19T06:41:39;97958.53;;;19.33;81.20
55604;BME280;41468;48.838;9.330;2022-08-19T06:44:21;97961.66;;;19.35;81.25
55604;BME280;41468;48.838;9.330;2022-08-19T06:46:52;97958.44;;;19.36;81.51
55604;BME280;41468;48.838;9.330;2022-08-19T06:49:23;97953.34;;;19.35;81.75
55604;BME280;41468;48.838;9.330;2022-08-19T06:51:58;97947.78;;;19.35;81.85
55604;BME280;41468;48.838;9.330;2022-08-19T06:54:28;97950.09;;;19.36;81.36
55604;BME280;41468;48.838;9.330;2022-08-19T06:57:03;97948.03;;;19.40;81.70
55604;BME280;41468;48.838;9.330;2022-08-19T06:59:36;97948.44;;;19.39;81.15
55604;BME280;41468;48.838;9.330;2022-08-19T07:02:06;97948.69;;;19.44;81.69
55604;BME280;41468;48.838;9.330;2022-08-19T07:04:37;97952.13;;;19.48;80.77
55604;BME280;41468;48.838;9.330;2022-08-19T07:07:10;97950.59;;;19.47;81.78
55604;BME280;41468;48.838;9.330;2022-08-19T07:09:48;97958.34;;;19.52;81.84
55604;BME280;41468;48.838;9.330;2022-08-19T07:12:27;97961.91;;;19.53;81.98
55604;BME280;41468;48.838;9.330;2022-08-19T07:15:05;97966.25;;;19.54;83.09
55604;BME280;41468;48.838;9.330;2022-08-19T07:17:36;97960.03;;;19.50;83.09
55604;BME280;41468;48.838;9.330;2022-08-19T07:20:09;97962.78;;;19.50;83.85
55604;BME280;41468;48.838;9.330;2022-08-19T07:22:39;97961.13;;;19.52;85.03
55604;BME280;41468;48.838;9.330;2022-08-19T07:25:09;97957.16;;;19.54;86.02
55604;BME280;41468;48.838;9.330;2022-08-19T07:27:39;97958.78;;;19.51;84.75
55604;BME280;41468;48.838;9.330;2022-08-19T07:30:16;97956.34;;;19.53;86.05
55604;BME280;41468;48.838;9.330;2022-08-19T07:32:46;97955.50;;;19.56;85.00
55604;BME280;41468;48.838;9.330;2022-08-19T07:35:18;97962.16;;;19.59;86.01
55604;BME280;41468;48.838;9.330;2022-08-19T07:37:48;97967.78;;;19.55;85.88
55604;BME280;41468;48.838;9.330;2022-08-19T07:40:20;97975.56;;;19.60;85.00
55604;BME280;41468;48.838;9.330;2022-08-19T07:42:50;97978.34;;;19.60;85.37
55604;BME280;41468;48.838;9.330;2022-08-19T07:45:22;97977.00;;;19.65;86.55
55604;BME280;41468;48.838;9.330;2022-08-19T07:47:52;97977.91;;;19.62;87.14
55604;BME280;41468;48.838;9.330;2022-08-19T07:50:22;97977.00;;;19.65;87.53
55604;BME280;41468;48.838;9.330;2022-08-19T07:52:51;97977.91;;;19.62;87.37
55604;BME280;41468;48.838;9.330;2022-08-19T07:55:23;97977.22;;;19.70;88.83
55604;BME280;41468;48.838;9.330;2022-08-19T07:58:09;97964.69;;;19.66;88.24
55604;BME280;41468;48.838;9.330;2022-08-19T08:00:43;97968.25;;;19.66;88.67
55604;BME280;41468;48.838;9.330;2022-08-19T08:03:13;97973.34;;;19.68;87.96
55604;BME280;41468;48.838;9.330;2022-08-19T08:05:44;97977.00;;;19.65;88.94
55604;BME280;41468;48.838;9.330;2022-08-19T08:08:27;97980.00;;;19.70;87.10
55604;BME280;41468;48.838;9.330;2022-08-19T08:11:14;97978.03;;;19.58;87.79
55604;BME280;41468;48.838;9.330;2022-08-19T08:13:46;97984.78;;;19.57;89.37
55604;BME280;41468;48.838;9.330;2022-08-19T08:16:34;97993.09;;;19.57;87.67
55604;BME280;41468;48.838;9.330;2022-08-19T08:19:06;97981.22;;;19.57;88.65
55604;BME280;41468;48.838;9.330;2022-08-19T08:21:50;97993.09;;;19.57;89.16
55604;BME280;41468;48.838;9.330;2022-08-19T08:24:20;97978.88;;;19.55;89.07
55604;BME280;41468;48.838;9.330;2022-08-19T08:26:55;97982.34;;;19.59;89.86
55604;BME280;41468;48.838;9.330;2022-08-19T08:29:25;97988.31;;;19.58;89.95
55604;BME280;41468;48.838;9.330;2022-08-19T08:32:03;97988.66;;;19.60;89.11
55604;BME280;41468;48.838;9.330;2022-08-19T08:34:39;97987.56;;;19.83;85.51
55604;BME280;41468;48.838;9.330;2022-08-19T08:37:09;97980.78;;;19.71;88.02
55604;BME280;41468;48.838;9.330;2022-08-19T08:39:41;97989.31;;;19.77;88.26
55604;BME280;41468;48.838;9.330;2022-08-19T08:42:19;97984.78;;;19.70;89.04
55604;BME280;41468;48.838;9.330;2022-08-19T08:44:58;97979.34;;;19.66;88.81
55604;BME280;41468;48.838;9.330;2022-08-19T08:47:34;97980.25;;;19.63;89.53
55604;BME280;41468;48.838;9.330;2022-08-19T08:50:12;97978.81;;;19.71;89.69
55604;BME280;41468;48.838;9.330;2022-08-19T08:52:48;97975.00;;;19.65;90.24
55604;BME280;41468;48.838;9.330;2022-08-19T08:55:21;97976.78;;;19.59;91.95
55604;BME280;41468;48.838;9.330;2022-08-19T08:57:53;97981.56;;;19.59;92.37
55604;BME280;41468;48.838;9.330;2022-08-19T09:00:28;97984.69;;;19.61;93.81
55604;BME280;41468;48.838;9.330;2022-08-19T09:03:03;97996.38;;;19.52;93.40
55604;BME280;41468;48.838;9.330;2022-08-19T09:05:41;98001.28;;;19.48;94.22
55604;BME280;41468;48.838;9.330;2022-08-19T09:08:23;97998.84;;;19.50;95.36
55604;BME280;41468;48.838;9.330;2022-08-19T09:10:57;97992.81;;;19.39;95.55
55604;BME280;41468;48.838;9.330;2022-08-19T09:13:36;97998.34;;;19.39;95.48
55604;BME280;41468;48.838;9.330;2022-08-19T09:16:10;98002.47;;;19.34;95.74
55604;BME280;41468;48.838;9.330;2022-08-19T09:18:46;98002.03;;;19.36;97.75
55604;BME280;41468;48.838;9.330;2022-08-19T09:21:21;98002.78;;;19.36;97.03
55604;BME280;41468;48.838;9.330;2022-08-19T09:23:59;98002.16;;;19.45;97.20
55604;BME280;41468;48.838;9.330;2022-08-19T09:26:30;98003.38;;;19.44;97.63
55604;BME280;41468;48.838;9.330;2022-08-19T09:29:17;98005.81;;;19.42;98.38
55604;BME280;41468;48.838;9.330;2022-08-19T09:31:48;98008.47;;;19.45;98.30
55604;BME280;41468;48.838;9.330;2022-08-19T09:34:21;98000.59;;;19.44;98.25
55604;BME280;41468;48.838;9.330;2022-08-19T09:36:51;97998.94;;;19.46;98.72
55604;BME280;41468;48.838;9.330;2022-08-19T09:39:24;98003.59;;;19.49;100.00
55604;BME280;41468;48.838;9.330;2022-08-19T09:42:02;98002.81;;;19.49;100.00
55604;BME280;41468;48.838;9.330;2022-08-19T09:44:56;97993.97;;;19.54;100.00
55604;BME280;41468;48.838;9.330;2022-08-19T09:47:26;98009.47;;;19.51;100.00
55604;BME280;41468;48.838;9.330;2022-08-19T09:49:59;98006.69;;;19.51;100.00
55604;BME280;41468;48.838;9.330;2022-08-19T09:52:29;98007.47;;;19.52;100.00
55604;BME280;41468;48.838;9.330;2022-08-19T09:55:03;98013.47;;;19.50;100.00
55604;BME280;41468;48.838;9.330;2022-08-19T09:57:33;98019.03;;;19.50;100.00
55604;BME280;41468;48.838;9.330;2022-08-19T10:00:05;98013.47;;;19.50;100.00
55604;BME280;41468;48.838;9.330;2022-08-19T10:02:36;98012.63;;;19.54;100.00
55604;BME280;41468;48.838;9.330;2022-08-19T10:05:13;98006.63;;;19.55;100.00
55604;BME280;41468;48.838;9.330;2022-08-19T10:07:56;98005.94;;;19.51;100.00
55604;BME280;41468;48.838;9.330;2022-08-19T10:10:30;98009.25;;;19.46;100.00
55604;BME280;41468;48.838;9.330;2022-08-19T10:13:08;97997.28;;;19.49;100.00
55604;BME280;41468;48.838;9.330;2022-08-19T10:15:38;98005.16;;;19.50;100.00
55604;BME280;41468;48.838;9.330;2022-08-19T10:18:13;98004.31;;;19.54;100.00
55604;BME280;41468;48.838;9.330;2022-08-19T10:20:48;98010.06;;;19.59;100.00
55604;BME280;41468;48.838;9.330;2022-08-19T10:23:20;98007.66;;;19.61;100.00
55604;BME280;41468;48.838;9.330;2022-08-19T10:25:50;98004.09;;;19.61;100.00
55604;BME280;41468;48.838;9.330;2022-08-19T10:28:20;98002.09;;;19.61;100.00
55604;BME280;41468;48.838;9.330;2022-08-19T10:30:50;98007.66;;;19.61;100.00
55604;BME280;41468;48.838;9.330;2022-08-19T10:33:20;97999.75;;;19.60;100.00
55604;BME280;41468;48.838;9.330;2022-08-19T10:36:17;98002.44;;;19.63;100.00
55604;BME280;41468;48.838;9.330;2022-08-19T10:38:51;98000.09;;;19.62;100.00
55604;BME280;41468;48.838;9.330;2022-08-19T10:41:28;97990.66;;;19.59;100.00
55604;BME280;41468;48.838;9.330;2022-08-19T10:44:01;97983.88;;;19.60;100.00
55604;BME280;41468;48.838;9.330;2022-08-19T10:46:34;97988.09;;;19.65;100.00
55604;BME280;41468;48.838;9.330;2022-08-19T10:49:05;97998.31;;;19.68;100.00
55604;BME280;41468;48.838;9.330;2022-08-19T10:51:40;97996.66;;;19.70;100.00
55604;BME280;41468;48.838;9.330;2022-08-19T10:54:24;97994.66;;;19.71;100.00
55604;BME280;41468;48.838;9.330;2022-08-19T10:57:15;98000.53;;;19.73;100.00
55604;BME280;41468;48.838;9.330;2022-08-19T10:59:42;97998.88;;;19.76;100.00
55604;BME280;41468;48.838;9.330;2022-08-19T11:02:12;97995.88;;;19.83;100.00
55604;BME280;41468;48.838;9.330;2022-08-19T11:04:41;97994.22;;;19.85;100.00
55604;BME280;41468;48.838;9.330;2022-08-19T11:07:15;97993.00;;;19.86;100.00
55604;BME280;41468;48.838;9.330;2022-08-19T11:09:45;98001.88;;;19.94;100.00
55604;BME280;41468;48.838;9.330;2022-08-19T11:12:16;97993.97;;;19.92;100.00
55604;BME280;41468;48.838;9.330;2022-08-19T11:14:46;98001.66;;;20.01;100.00
55604;BME280;41468;48.838;9.330;2022-08-19T11:17:16;97990.56;;;20.01;100.00
55604;BME280;41468;48.838;9.330;2022-08-19T11:19:46;97992.22;;;19.99;100.00
55604;BME280;41468;48.838;9.330;2022-08-19T11:22:18;97994.88;;;20.02;100.00
55604;BME280;41468;48.838;9.330;2022-08-19T11:24:48;97988.44;;;20.05;100.00
55604;BME280;41468;48.838;9.330;2022-08-19T11:27:18;97990.22;;;19.99;100.00
55604;BME280;41468;48.838;9.330;2022-08-19T11:29:48;97983.91;;;19.86;100.00
55604;BME280;41468;48.838;9.330;2022-08-19T11:32:19;97987.00;;;19.88;100.00
55604;BME280;41468;48.838;9.330;2022-08-19T11:34:49;97985.00;;;19.88;100.00
55604;BME280;41468;48.838;9.330;2022-08-19T11:37:21;97991.53;;;19.94;100.00
55604;BME280;41468;48.838;9.330;2022-08-19T11:39:51;97993.00;;;19.99;100.00
55604;BME280;41468;48.838;9.330;2022-08-19T11:42:20;97991.31;;;19.89;100.00
55604;BME280;41468;48.838;9.330;2022-08-19T11:45:03;97988.47;;;19.80;100.00
55604;BME280;41468;48.838;9.330;2022-08-19T11:47:33;97995.75;;;19.73;100.00
55604;BME280;41468;48.838;9.330;2022-08-19T11:50:04;97989.66;;;19.79;100.00
55604;BME280;41468;48.838;9.330;2022-08-19T11:52:36;97983.34;;;19.78;100.00
55604;BME280;41468;48.838;9.330;2022-08-19T11:55:07;97992.44;;;19.79;100.00
55604;BME280;41468;48.838;9.330;2022-08-19T11:57:37;97992.22;;;19.86;100.00
55604;BME280;41468;48.838;9.330;2022-08-19T12:00:08;97990.09;;;19.90;100.00
55604;BME280;41468;48.838;9.330;2022-08-19T12:02:39;97991.09;;;19.70;100.00
55604;BME280;41468;48.838;9.330;2022-08-19T12:05:09;97990.69;;;19.72;100.00
55604;BME280;41468;48.838;9.330;2022-08-19T12:07:41;97986.00;;;19.82;100.00
55604;BME280;41468;48.838;9.330;2022-08-19T12:10:12;97984.53;;;19.90;100.00
55604;BME280;41468;48.838;9.330;2022-08-19T12:12:45;97987.78;;;20.01;100.00
55604;BME280;41468;48.838;9.330;2022-08-19T12:15:24;97985.31;;;20.03;100.00
55604;BME280;41468;48.838;9.330;2022-08-19T12:18:03;97989.19;;;20.06;100.00
55604;BME280;41468;48.838;9.330;2022-08-19T12:20:35;97989.75;;;20.13;100.00
55604;BME280;41468;48.838;9.330;2022-08-19T12:23:08;97987.88;;;20.10;100.00
55604;BME280;41468;48.838;9.330;2022-08-19T12:25:45;97998.53;;;20.12;100.00
55604;BME280;41468;48.838;9.330;2022-08-19T12:28:16;97989.63;;;20.17;100.00
55604;BME280;41468;48.838;9.330;2022-08-19T12:30:46;97996.28;;;20.19;100.00
55604;BME280;41468;48.838;9.330;2022-08-19T12:33:17;97988.75;;;20.20;100.00
55604;BME280;41468;48.838;9.330;2022-08-19T12:35:50;97987.09;;;20.23;100.00
55604;BME280;41468;48.838;9.330;2022-08-19T12:38:23;97987.66;;;20.17;100.00
55604;BME280;41468;48.838;9.330;2022-08-19T12:40:53;97990.72;;;20.19;100.00
55604;BME280;41468;48.838;9.330;2022-08-19T12:43:26;97994.09;;;20.14;100.00
55604;BME280;41468;48.838;9.330;2022-08-19T12:45:56;97988.19;;;20.12;100.00
55604;BME280;41468;48.838;9.330;2022-08-19T12:48:26;97988.84;;;20.16;100.00
55604;BME280;41468;48.838;9.330;2022-08-19T12:51:01;97990.53;;;20.14;100.00
55604;BME280;41468;48.838;9.330;2022-08-19T12:53:37;97998.97;;;20.10;100.00
55604;BME280;41468;48.838;9.330;2022-08-19T12:56:08;97994.88;;;20.02;100.00
55604;BME280;41468;48.838;9.330;2022-08-19T12:58:39;98002.22;;;19.96;100.00
55604;BME280;41468;48.838;9.330;2022-08-19T13:01:17;98002.22;;;19.96;100.00
55604;BME280;41468;48.838;9.330;2022-08-19T13:03:48;98002.97;;;19.84;100.00
55604;BME280;41468;48.838;9.330;2022-08-19T13:06:18;98005.00;;;19.83;100.00
55604;BME280;41468;48.838;9.330;2022-08-19T13:08:52;98009.31;;;19.71;100.00
55604;BME280;41468;48.838;9.330;2022-08-19T13:11:25;98003.78;;;19.71;100.00
55604;BME280;41468;48.838;9.330;2022-08-19T13:13:59;98013.53;;;19.63;100.00
55604;BME280;41468;48.838;9.330;2022-08-19T13:16:30;98015.28;;;19.57;100.00
55604;BME280;41468;48.838;9.330;2022-08-19T13:19:00;98012.97;;;19.56;100.00
55604;BME280;41468;48.838;9.330;2022-08-19T13:21:31;98016.94;;;19.55;100.00
55604;BME280;41468;48.838;9.330;2022-08-19T13:24:04;98015.00;;;19.39;100.00
55604;BME280;41468;48.838;9.330;2022-08-19T13:26:34;98013.44;;;19.38;100.00
55604;BME280;41468;48.838;9.330;2022-08-19T13:29:04;98006.91;;;19.32;100.00